sensor_id;sensor_type;location;lat;lon;timestamp;P1;P2;P0
65360;PMS5003;51958;55.018;73.536;2024-03-07T02:53:56;0.00;0.00;0.00
65360;PMS5003;51958;55.018;73.536;2024-03-07T02:56:57;2.00;0.00;0.00
65360;PMS5003;51958;55.018;73.536;2024-03-07T02:59:59;0.00;0.00;0.00
65360;PMS5003;51958;55.018;73.536;2024-03-07T03:03:00;1.00;0.00;0.00
65360;PMS5003;51958;55.018;73.536;2024-03-07T03:06:02;0.00;0.00;0.00
65360;PMS5003;51958;55.018;73.536;2024-03-07T03:09:03;0.00;0.00;0.00
65360;PMS5003;51958;55.018;73.536;2024-03-07T03:12:06;0.00;0.00;0.00
65360;PMS5003;51958;55.018;73.536;2024-03-07T03:15:07;0.00;0.00;0.00
65360;PMS5003;51958;55.018;73.536;2024-03-07T03:18:11;0.00;0.00;0.00
65360;PMS5003;51958;55.018;73.536;2024-03-07T03:21:13;0.00;0.00;0.00
65360;PMS5003;51958;55.018;73.536;2024-03-07T03:24:16;0.00;0.00;0.00
65360;PMS5003;51958;55.018;73.536;2024-03-07T03:27:17;0.00;0.00;0.00
65360;PMS5003;51958;55.018;73.536;2024-03-07T03:30:18;1.00;0.00;0.00
65360;PMS5003;51958;55.018;73.536;2024-03-07T03:33:20;0.00;0.00;0.00
65360;PMS5003;51958;55.018;73.536;2024-03-07T03:36:21;0.00;0.00;0.00
65360;PMS5003;51958;55.018;73.536;2024-03-07T03:39:23;0.00;0.00;0.00
65360;PMS5003;51958;55.018;73.536;2024-03-07T03:42:24;0.00;0.00;0.00
65360;PMS5003;51958;55.018;73.536;2024-03-07T03:45:26;0.00;0.00;0.00
65360;PMS5003;51958;55.018;73.536;2024-03-07T03:48:28;0.00;0.00;0.00
65360;PMS5003;51958;55.018;73.536;2024-03-07T03:51:29;0.00;0.00;0.00
65360;PMS5003;51958;55.018;73.536;2024-03-07T03:54:31;0.00;0.00;0.00
65360;PMS5003;51958;55.018;73.536;2024-03-07T03:57:32;0.00;0.00;0.00
65360;PMS5003;51958;55.018;73.536;2024-03-07T04:00:35;0.00;0.00;0.00
65360;PMS5003;51958;55.018;73.536;2024-03-07T04:03:36;0.00;0.00;0.00
65360;PMS5003;51958;55.018;73.536;2024-03-07T04:06:37;0.00;0.00;0.00
65360;PMS5003;51958;55.018;73.536;2024-03-07T04:09:39;0.00;0.00;0.00
65360;PMS5003;51958;55.018;73.536;2024-03-07T04:12:40;0.00;0.00;0.00
65360;PMS5003;51958;55.018;73.536;2024-03-07T04:15:45;1.00;1.00;0.00
65360;PMS5003;51958;55.018;73.536;2024-03-07T04:18:47;0.00;0.00;0.00
65360;PMS5003;51958;55.018;73.536;2024-03-07T04:21:48;0.00;0.00;0.00
65360;PMS5003;51958;55.018;73.536;2024-03-07T04:24:49;0.00;0.00;0.00
65360;PMS5003;51958;55.018;73.536;2024-03-07T04:27:54;1.00;0.00;0.00
65360;PMS5003;51958;55.018;73.536;2024-03-07T04:30:57;0.00;0.00;0.00
65360;PMS5003;51958;55.018;73.536;2024-03-07T04:33:58;0.00;0.00;0.00
65360;PMS5003;51958;55.018;73.536;2024-03-07T04:37:00;1.00;0.00;0.00
65360;PMS5003;51958;55.018;73.536;2024-03-07T04:40:05;0.00;0.00;0.00
65360;PMS5003;51958;55.018;73.536;2024-03-07T04:43:16;0.00;0.00;0.00
65360;PMS5003;51958;55.018;73.536;2024-03-07T04:46:22;0.00;0.00;0.00
65360;PMS5003;51958;55.018;73.536;2024-03-07T04:49:24;0.00;0.00;0.00
65360;PMS5003;51958;55.018;73.536;2024-03-07T04:52:25;0.00;0.00;0.00
65360;PMS5003;51958;55.018;73.536;2024-03-07T04:55:27;0.00;0.00;0.00
65360;PMS5003;51958;55.018;73.536;2024-03-07T04:58:28;0.00;0.00;0.00
65360;PMS5003;51958;55.018;73.536;2024-03-07T05:01:29;0.00;0.00;0.00
65360;PMS5003;51958;55.018;73.536;2024-03-07T05:04:32;0.00;0.00;0.00
65360;PMS5003;51958;55.018;73.536;2024-03-07T05:07:33;0.00;0.00;0.00
65360;PMS5003;51958;55.018;73.536;2024-03-07T05:10:36;0.67;0.67;0.00
65360;PMS5003;51958;55.018;73.536;2024-03-07T05:13:38;0.00;0.00;0.00
65360;PMS5003;51958;55.018;73.536;2024-03-07T05:16:39;0.00;0.00;0.00
65360;PMS5003;51958;55.018;73.536;2024-03-07T05:19:40;1.00;0.00;0.00
65360;PMS5003;51958;55.018;73.536;2024-03-07T05:22:42;0.00;0.00;0.00
65360;PMS5003;51958;55.018;73.536;2024-03-07T05:25:51;0.00;0.00;0.00
65360;PMS5003;51958;55.018;73.536;2024-03-07T05:28:53;0.00;0.00;0.00
65360;PMS5003;51958;55.018;73.536;2024-03-07T05:32:17;0.00;0.00;0.00
65360;PMS5003;51958;55.018;73.536;2024-03-07T05:35:18;0.00;0.00;0.00
65360;PMS5003;51958;55.018;73.536;2024-03-07T05:38:20;0.00;0.00;0.00
65360;PMS5003;51958;55.018;73.536;2024-03-07T05:41:22;0.00;0.00;0.00
65360;PMS5003;51958;55.018;73.536;2024-03-07T05:44:23;0.00;0.00;0.00
65360;PMS5003;51958;55.018;73.536;2024-03-07T05:47:24;0.00;0.00;0.00
65360;PMS5003;51958;55.018;73.536;2024-03-07T05:50:26;0.00;0.00;0.00
65360;PMS5003;51958;55.018;73.536;2024-03-07T05:53:27;0.00;0.00;0.00
65360;PMS5003;51958;55.018;73.536;2024-03-07T05:56:28;0.00;0.00;0.00
65360;PMS5003;51958;55.018;73.536;2024-03-07T05:59:30;0.00;0.00;0.00
65360;PMS5003;51958;55.018;73.536;2024-03-07T06:02:34;0.00;0.00;0.00
65360;PMS5003;51958;55.018;73.536;2024-03-07T06:05:35;0.00;0.00;0.00
65360;PMS5003;51958;55.018;73.536;2024-03-07T06:08:37;0.00;0.00;0.00
65360;PMS5003;51958;55.018;73.536;2024-03-07T06:11:39;1.00;0.00;0.00
65360;PMS5003;51958;55.018;73.536;2024-03-07T06:14:44;0.00;0.00;0.00
65360;PMS5003;51958;55.018;73.536;2024-03-07T06:17:45;0.00;0.00;0.00
65360;PMS5003;51958;55.018;73.536;2024-03-07T06:20:47;1.00;1.00;0.00
65360;PMS5003;51958;55.018;73.536;2024-03-07T06:23:49;1.00;0.00;0.00
65360;PMS5003;51958;55.018;73.536;2024-03-07T06:26:56;0.00;0.00;0.00
65360;PMS5003;51958;55.018;73.536;2024-03-07T06:30:01;0.00;0.00;0.00
65360;PMS5003;51958;55.018;73.536;2024-03-07T06:33:05;0.00;0.00;0.00
65360;PMS5003;51958;55.018;73.536;2024-03-07T06:36:07;0.00;0.00;0.00
65360;PMS5003;51958;55.018;73.536;2024-03-07T06:39:10;0.00;0.00;0.00
65360;PMS5003;51958;55.018;73.536;2024-03-07T06:42:11;0.00;0.00;0.00
65360;PMS5003;51958;55.018;73.536;2024-03-07T06:45:13;0.00;0.00;0.00
65360;PMS5003;51958;55.018;73.536;2024-03-07T06:48:14;0.00;0.00;0.00
65360;PMS5003;51958;55.018;73.536;2024-03-07T06:51:15;0.00;0.00;0.00
65360;PMS5003;51958;55.018;73.536;2024-03-07T06:54:18;0.00;0.00;0.00
65360;PMS5003;51958;55.018;73.536;2024-03-07T06:57:20;0.00;0.00;0.00
65360;PMS5003;51958;55.018;73.536;2024-03-07T07:00:21;0.00;0.00;0.00
65360;PMS5003;51958;55.018;73.536;2024-03-07T07:03:23;0.00;0.00;0.00
65360;PMS5003;51958;55.018;73.536;2024-03-07T07:06:25;0.00;0.00;0.00
65360;PMS5003;51958;55.018;73.536;2024-03-07T07:09:27;0.00;0.00;0.00
65360;PMS5003;51958;55.018;73.536;2024-03-07T07:12:28;0.00;0.00;0.00
65360;PMS5003;51958;55.018;73.536;2024-03-07T07:15:30;0.00;0.00;0.00
65360;PMS5003;51958;55.018;73.536;2024-03-07T07:18:31;1.00;0.00;0.00
65360;PMS5003;51958;55.018;73.536;2024-03-07T07:21:33;0.00;0.00;0.00
65360;PMS5003;51958;55.018;73.536;2024-03-07T07:24:34;0.00;0.00;0.00
65360;PMS5003;51958;55.018;73.536;2024-03-07T07:27:35;0.00;0.00;0.00
65360;PMS5003;51958;55.018;73.536;2024-03-07T07:30:37;0.00;0.00;0.00
65360;PMS5003;51958;55.018;73.536;2024-03-07T07:33:38;0.00;0.00;0.00
65360;PMS5003;51958;55.018;73.536;2024-03-07T07:36:39;0.00;0.00;0.00
65360;PMS5003;51958;55.018;73.536;2024-03-07T07:39:41;0.00;0.00;0.00
65360;PMS5003;51958;55.018;73.536;2024-03-07T07:42:42;1.00;0.00;0.00
65360;PMS5003;51958;55.018;73.536;2024-03-07T07:45:44;0.00;0.00;0.00
65360;PMS5003;51958;55.018;73.536;2024-03-07T07:48:45;1.00;0.00;0.00
65360;PMS5003;51958;55.018;73.536;2024-03-07T07:51:47;0.00;0.00;0.00
65360;PMS5003;51958;55.018;73.536;2024-03-07T07:54:49;0.00;0.00;0.00
65360;PMS5003;51958;55.018;73.536;2024-03-07T07:57:51;0.00;0.00;0.00
65360;PMS5003;51958;55.018;73.536;2024-03-07T08:00:56;0.00;0.00;0.00
65360;PMS5003;51958;55.018;73.536;2024-03-07T08:03:57;0.00;0.00;0.00
65360;PMS5003;51958;55.018;73.536;2024-03-07T08:06:59;0.00;0.00;0.00
65360;PMS5003;51958;55.018;73.536;2024-03-07T08:10:01;0.00;0.00;0.00
65360;PMS5003;51958;55.018;73.536;2024-03-07T08:13:04;0.00;0.00;0.00
65360;PMS5003;51958;55.018;73.536;2024-03-07T08:16:12;0.00;0.00;0.00
65360;PMS5003;51958;55.018;73.536;2024-03-07T08:19:13;0.00;0.00;0.00
65360;PMS5003;51958;55.018;73.536;2024-03-07T08:22:15;0.00;0.00;0.00
65360;PMS5003;51958;55.018;73.536;2024-03-07T08:25:16;0.00;0.00;0.00
65360;PMS5003;51958;55.018;73.536;2024-03-07T08:28:20;2.00;1.00;0.00
65360;PMS5003;51958;55.018;73.536;2024-03-07T08:31:21;1.00;0.00;0.00
65360;PMS5003;51958;55.018;73.536;2024-03-07T08:34:22;0.00;0.00;0.00
65360;PMS5003;51958;55.018;73.536;2024-03-07T08:37:23;0.00;0.00;0.00
65360;PMS5003;51958;55.018;73.536;2024-03-07T08:40:25;1.00;0.00;0.00
65360;PMS5003;51958;55.018;73.536;2024-03-07T08:43:27;1.00;1.00;0.00
65360;PMS5003;51958;55.018;73.536;2024-03-07T08:46:28;0.00;0.00;0.00
65360;PMS5003;51958;55.018;73.536;2024-03-07T08:49:30;1.00;0.00;0.00
65360;PMS5003;51958;55.018;73.536;2024-03-07T08:52:37;1.00;0.00;0.00
65360;PMS5003;51958;55.018;73.536;2024-03-07T08:55:39;1.00;0.00;0.00
65360;PMS5003;51958;55.018;73.536;2024-03-07T08:58:40;0.00;0.00;0.00
65360;PMS5003;51958;55.018;73.536;2024-03-07T09:01:41;0.00;0.00;0.00
65360;PMS5003;51958;55.018;73.536;2024-03-07T09:04:44;1.00;1.00;0.00
65360;PMS5003;51958;55.018;73.536;2024-03-07T09:07:46;2.00;2.00;0.00
65360;PMS5003;51958;55.018;73.536;2024-03-07T09:10:47;0.33;0.00;0.00
65360;PMS5003;51958;55.018;73.536;2024-03-07T09:13:49;1.00;0.00;0.00
65360;PMS5003;51958;55.018;73.536;2024-03-07T09:16:50;0.00;0.00;0.00
65360;PMS5003;51958;55.018;73.536;2024-03-07T09:19:52;0.00;0.00;0.00
65360;PMS5003;51958;55.018;73.536;2024-03-07T09:22:53;2.00;2.00;1.00
65360;PMS5003;51958;55.018;73.536;2024-03-07T09:25:55;5.67;4.00;1.00
65360;PMS5003;51958;55.018;73.536;2024-03-07T09:28:56;2.67;2.33;0.00
65360;PMS5003;51958;55.018;73.536;2024-03-07T09:31:58;2.00;2.00;0.00
65360;PMS5003;51958;55.018;73.536;2024-03-07T09:34:59;1.00;0.00;0.00
65360;PMS5003;51958;55.018;73.536;2024-03-07T09:38:02;1.00;0.00;0.00
65360;PMS5003;51958;55.018;73.536;2024-03-07T09:41:03;0.00;0.00;0.00
65360;PMS5003;51958;55.018;73.536;2024-03-07T09:44:05;0.00;0.00;0.00
65360;PMS5003;51958;55.018;73.536;2024-03-07T09:47:06;0.00;0.00;0.00
65360;PMS5003;51958;55.018;73.536;2024-03-07T09:50:09;1.00;1.00;0.00
65360;PMS5003;51958;55.018;73.536;2024-03-07T09:53:10;2.00;1.00;0.00
65360;PMS5003;51958;55.018;73.536;2024-03-07T09:56:12;1.00;1.00;0.00
65360;PMS5003;51958;55.018;73.536;2024-03-07T09:59:15;1.00;0.00;0.00
65360;PMS5003;51958;55.018;73.536;2024-03-07T10:02:21;0.00;0.00;0.00
65360;PMS5003;51958;55.018;73.536;2024-03-07T10:05:28;0.00;0.00;0.00
65360;PMS5003;51958;55.018;73.536;2024-03-07T10:08:31;1.00;0.00;0.00
65360;PMS5003;51958;55.018;73.536;2024-03-07T10:11:33;0.67;0.00;0.00
65360;PMS5003;51958;55.018;73.536;2024-03-07T10:14:38;0.00;0.00;0.00
65360;PMS5003;51958;55.018;73.536;2024-03-07T10:17:39;2.00;1.00;0.00
65360;PMS5003;51958;55.018;73.536;2024-03-07T10:20:44;2.00;2.00;0.00
65360;PMS5003;51958;55.018;73.536;2024-03-07T10:23:46;1.00;1.00;0.00
65360;PMS5003;51958;55.018;73.536;2024-03-07T10:26:47;2.00;1.00;0.00
65360;PMS5003;51958;55.018;73.536;2024-03-07T10:29:49;2.50;2.00;0.00
65360;PMS5003;51958;55.018;73.536;2024-03-07T10:32:54;4.00;4.00;2.00
65360;PMS5003;51958;55.018;73.536;2024-03-07T10:35:56;3.00;3.00;1.00
65360;PMS5003;51958;55.018;73.536;2024-03-07T10:39:01;3.00;3.00;1.00
65360;PMS5003;51958;55.018;73.536;2024-03-07T10:42:22;3.00;2.00;0.00
65360;PMS5003;51958;55.018;73.536;2024-03-07T10:45:29;2.00;2.00;0.00
65360;PMS5003;51958;55.018;73.536;2024-03-07T10:48:31;1.00;1.00;0.00
65360;PMS5003;51958;55.018;73.536;2024-03-07T10:51:40;1.67;1.00;0.00
65360;PMS5003;51958;55.018;73.536;2024-03-07T10:57:52;1.00;0.50;0.00
65360;PMS5003;51958;55.018;73.536;2024-03-07T11:00:56;2.00;1.50;0.00
65360;PMS5003;51958;55.018;73.536;2024-03-07T11:04:00;2.00;2.00;0.00
65360;PMS5003;51958;55.018;73.536;2024-03-07T11:07:06;2.00;2.00;0.00
65360;PMS5003;51958;55.018;73.536;2024-03-07T11:10:07;2.00;2.00;0.00
65360;PMS5003;51958;55.018;73.536;2024-03-07T11:13:12;2.00;1.00;0.00
65360;PMS5003;51958;55.018;73.536;2024-03-07T11:16:15;2.00;0.00;0.00
65360;PMS5003;51958;55.018;73.536;2024-03-07T11:19:26;0.00;0.00;0.00
65360;PMS5003;51958;55.018;73.536;2024-03-07T11:22:31;2.00;2.00;0.00
65360;PMS5003;51958;55.018;73.536;2024-03-07T11:25:35;4.00;4.00;1.00
65360;PMS5003;51958;55.018;73.536;2024-03-07T11:28:40;6.00;4.00;1.00
65360;PMS5003;51958;55.018;73.536;2024-03-07T11:31:42;8.33;6.33;3.67
65360;PMS5003;51958;55.018;73.536;2024-03-07T11:34:44;8.00;6.00;3.00
65360;PMS5003;51958;55.018;73.536;2024-03-07T11:37:49;9.00;6.33;2.00
65360;PMS5003;51958;55.018;73.536;2024-03-07T11:40:52;10.00;9.00;3.00
65360;PMS5003;51958;55.018;73.536;2024-03-07T11:43:58;9.00;6.00;3.00
65360;PMS5003;51958;55.018;73.536;2024-03-07T11:47:03;9.33;5.67;3.00
65360;PMS5003;51958;55.018;73.536;2024-03-07T11:50:09;12.67;8.67;4.00
65360;PMS5003;51958;55.018;73.536;2024-03-07T11:53:12;13.00;10.00;4.00
65360;PMS5003;51958;55.018;73.536;2024-03-07T11:56:14;9.33;7.67;2.00
65360;PMS5003;51958;55.018;73.536;2024-03-07T11:59:17;6.00;5.00;1.00
65360;PMS5003;51958;55.018;73.536;2024-03-07T12:02:19;5.33;5.00;2.00
65360;PMS5003;51958;55.018;73.536;2024-03-07T12:05:23;6.00;4.00;1.00
65360;PMS5003;51958;55.018;73.536;2024-03-07T12:08:28;3.67;2.00;0.00
65360;PMS5003;51958;55.018;73.536;2024-03-07T12:11:30;2.00;2.00;0.00
65360;PMS5003;51958;55.018;73.536;2024-03-07T12:14:32;4.00;3.67;0.00
65360;PMS5003;51958;55.018;73.536;2024-03-07T12:17:35;3.67;2.00;0.00
65360;PMS5003;51958;55.018;73.536;2024-03-07T12:20:49;2.00;1.00;0.00
65360;PMS5003;51958;55.018;73.536;2024-03-07T12:24:15;2.00;2.00;0.00
65360;PMS5003;51958;55.018;73.536;2024-03-07T12:27:16;1.00;1.00;0.00
65360;PMS5003;51958;55.018;73.536;2024-03-07T12:30:17;2.00;2.00;0.00
65360;PMS5003;51958;55.018;73.536;2024-03-07T12:33:21;3.50;2.00;0.00
65360;PMS5003;51958;55.018;73.536;2024-03-07T12:36:24;4.00;2.00;0.00
65360;PMS5003;51958;55.018;73.536;2024-03-07T12:39:35;4.00;3.50;0.00
65360;PMS5003;51958;55.018;73.536;2024-03-07T12:45:51;5.00;4.00;2.00
65360;PMS5003;51958;55.018;73.536;2024-03-07T12:49:10;8.00;6.00;2.00
65360;PMS5003;51958;55.018;73.536;2024-03-07T13:01:30;8.00;6.00;3.00
65360;PMS5003;51958;55.018;73.536;2024-03-07T13:08:11;6.00;4.00;2.00
